Time;durP1;ratioP1;P1;durP2;ratioP2;P2;SDS_P1;SDS_P2;PMS_P1;PMS_P2;Temp;Humidity;BMP_temperature;BMP_pressure;BME280_temperature;BME280_humidity;BME280_pressure;Samples;Min_cycle;Max_cycle;Signal;HPM_P1;HPM_P2
2024/03/16 00:00:42;;;;;;;14.20;6.47;;;11.10;99.90;;;;;;5088199;28;20036;-76
2024/03/16 00:03:09;;;;;;;12.90;7.37;;;11.00;99.90;;;;;;5087176;28;20028;-73
2024/03/16 00:05:44;;;;;;;11.07;6.43;;;11.00;99.90;;;;;;5088461;28;20032;-72
2024/03/16 00:08:09;;;;;;;14.75;7.25;;;11.00;99.90;;;;;;5088294;28;20027;-74
2024/03/16 00:10:35;;;;;;;12.27;7.23;;;10.90;99.90;;;;;;5086769;28;20036;-75
2024/03/16 00:13:00;;;;;;;12.77;7.83;;;10.80;99.90;;;;;;5087313;28;20038;-75
2024/03/16 00:15:26;;;;;;;14.70;7.40;;;10.80;99.90;;;;;;5088043;28;20502;-75
2024/03/16 00:17:52;;;;;;;16.58;8.35;;;10.70;99.90;;;;;;5086619;28;20024;-76
2024/03/16 00:20:18;;;;;;;11.43;7.60;;;10.60;99.90;;;;;;5088204;28;20043;-75
2024/03/16 00:22:44;;;;;;;18.88;8.18;;;10.60;99.90;;;;;;5088644;28;20024;-75
2024/03/16 00:25:09;;;;;;;14.10;7.00;;;10.50;99.90;;;;;;5088188;28;20064;-75
2024/03/16 00:27:35;;;;;;;12.87;6.33;;;10.70;99.90;;;;;;5087965;28;20081;-76
2024/03/16 00:30:01;;;;;;;10.83;6.83;;;10.80;99.90;;;;;;5087726;28;20477;-75
2024/03/16 00:32:27;;;;;;;11.90;6.90;;;10.80;99.90;;;;;;5087271;28;20077;-73
2024/03/16 00:34:52;;;;;;;13.27;7.25;;;10.90;99.90;;;;;;5087578;28;20341;-75
2024/03/16 00:37:18;;;;;;;9.00;6.13;;;11.00;99.90;;;;;;5087836;28;20043;-74
2024/03/16 00:39:44;;;;;;;10.87;6.60;;;11.00;99.90;;;;;;5087839;28;20072;-75
2024/03/16 00:42:09;;;;;;;11.20;7.67;;;11.00;99.90;;;;;;5088429;28;20023;-72
2024/03/16 00:44:39;;;;;;;10.97;6.47;;;10.90;99.90;;;;;;5087515;28;20289;-73
2024/03/16 00:47:05;;;;;;;9.93;5.88;;;10.90;99.90;;;;;;5087980;28;20020;-74
2024/03/16 00:49:30;;;;;;;13.88;6.30;;;10.90;99.90;;;;;;5087285;28;20856;-73
2024/03/16 00:51:57;;;;;;;12.10;6.80;;;10.90;99.90;;;;;;5087568;28;20035;-72
2024/03/16 00:54:23;;;;;;;15.43;6.03;;;10.90;99.90;;;;;;5087085;28;20032;-70
2024/03/16 00:56:51;;;;;;;9.68;5.97;;;11.00;99.90;;;;;;5087259;28;20093;-71
2024/03/16 00:59:17;;;;;;;10.80;5.95;;;11.00;99.90;;;;;;5086617;28;20140;-74
2024/03/16 01:01:43;;;;;;;9.80;5.60;;;11.00;99.90;;;;;;5086985;28;20024;-73
2024/03/16 01:04:08;;;;;;;13.37;6.33;;;11.10;99.90;;;;;;5087043;28;20042;-72
2024/03/16 01:06:34;;;;;;;10.23;5.90;;;11.00;99.90;;;;;;5087477;28;20056;-74
2024/03/16 01:08:59;;;;;;;15.70;6.97;;;11.00;99.90;;;;;;5086617;28;20106;-74
2024/03/16 01:11:25;;;;;;;16.50;7.97;;;10.90;99.90;;;;;;5087762;28;20789;-73
2024/03/16 01:13:51;;;;;;;13.20;7.13;;;10.90;99.90;;;;;;5087297;28;20699;-72
2024/03/16 01:16:17;;;;;;;13.93;7.18;;;10.90;99.90;;;;;;5086811;28;20025;-73
2024/03/16 01:18:43;;;;;;;15.88;7.35;;;10.90;99.90;;;;;;5087226;28;20076;-75
2024/03/16 01:21:09;;;;;;;12.45;6.45;;;10.90;99.90;;;;;;5086744;28;20027;-72
2024/03/16 01:23:35;;;;;;;11.05;6.95;;;10.90;99.90;;;;;;5087064;28;20496;-74
2024/03/16 01:26:00;;;;;;;11.90;8.30;;;10.80;99.90;;;;;;5086670;28;20075;-74
2024/03/16 01:28:26;;;;;;;13.17;8.80;;;10.80;99.90;;;;;;5086953;28;20114;-70
2024/03/16 01:30:52;;;;;;;14.32;8.23;;;10.80;99.90;;;;;;5086345;28;20016;-70
2024/03/16 01:33:18;;;;;;;9.50;7.50;;;10.80;99.90;;;;;;5086194;28;20098;-69
2024/03/16 01:35:44;;;;;;;11.00;7.20;;;10.70;99.90;;;;;;5086605;28;20030;-70
2024/03/16 01:38:10;;;;;;;10.32;6.43;;;10.70;99.90;;;;;;5086193;28;20020;-69
2024/03/16 01:40:35;;;;;;;12.90;6.67;;;10.90;99.90;;;;;;5085970;28;20035;-70
2024/03/16 01:43:02;;;;;;;20.90;7.70;;;10.80;99.90;;;;;;5086050;28;20304;-71
2024/03/16 01:45:28;;;;;;;16.42;7.50;;;10.90;99.90;;;;;;5086406;28;20456;-71
2024/03/16 01:47:54;;;;;;;8.73;5.90;;;10.80;99.90;;;;;;5086439;28;20028;-69
2024/03/16 01:50:23;;;;;;;15.43;7.25;;;10.80;99.90;;;;;;5086140;28;20106;-69
2024/03/16 01:52:49;;;;;;;14.38;6.70;;;10.90;99.90;;;;;;5086416;28;20032;-69
2024/03/16 01:55:16;;;;;;;11.57;5.97;;;10.90;99.90;;;;;;5087122;28;20110;-74
2024/03/16 01:57:42;;;;;;;10.15;5.45;;;10.90;99.90;;;;;;5086767;28;20044;-72
2024/03/16 02:00:11;;;;;;;12.88;4.85;;;10.90;99.90;;;;;;5086723;28;20525;-69
2024/03/16 02:02:38;;;;;;;7.13;4.03;;;10.90;99.90;;;;;;5086606;28;20039;-71
2024/03/16 02:05:05;;;;;;;14.23;4.60;;;11.00;99.90;;;;;;5086524;28;20089;-74
2024/03/16 02:07:30;;;;;;;;;;;11.00;99.90;;;;;;5086393;28;20094;-72
2024/03/16 02:09:59;;;;;;;8.80;4.85;;;11.00;99.90;;;;;;5086870;28;19919;-69
2024/03/16 02:12:24;;;;;;;9.35;5.15;;;11.00;99.90;;;;;;5087107;28;20089;-71
2024/03/16 02:14:50;;;;;;;7.73;4.60;;;11.00;99.90;;;;;;5088068;28;20020;-73
2024/03/16 02:17:16;;;;;;;10.07;4.27;;;10.90;99.90;;;;;;5088638;28;20462;-71
2024/03/16 02:19:42;;;;;;;10.98;5.03;;;10.80;99.90;;;;;;5087284;28;20403;-73
2024/03/16 02:22:08;;;;;;;14.07;7.80;;;10.80;99.90;;;;;;5086278;28;20036;-74
2024/03/16 02:24:35;;;;;;;11.57;6.45;;;10.80;99.90;;;;;;5085592;28;20390;-73
2024/03/16 02:27:01;;;;;;;17.67;8.52;;;10.70;99.90;;;;;;5086642;28;20031;-73
2024/03/16 02:29:27;;;;;;;16.45;9.43;;;10.70;99.90;;;;;;5086726;28;20027;-74
2024/03/16 02:31:54;;;;;;;11.45;7.18;;;10.70;99.90;;;;;;5087099;28;20028;-74
2024/03/16 02:34:19;;;;;;;13.25;7.75;;;10.70;99.90;;;;;;5086626;28;20503;-73
2024/03/16 02:36:45;;;;;;;15.90;8.00;;;10.70;99.90;;;;;;5087624;28;20070;-71
2024/03/16 02:39:11;;;;;;;11.77;7.60;;;10.70;99.90;;;;;;5090119;28;20035;-71
2024/03/16 02:41:36;;;;;;;11.55;7.82;;;10.70;99.90;;;;;;5090382;28;20020;-72
2024/03/16 02:44:03;;;;;;;16.70;7.45;;;10.70;99.90;;;;;;5090375;28;20093;-72
2024/03/16 02:46:28;;;;;;;11.88;7.43;;;10.70;99.90;;;;;;5088851;28;20495;-72
2024/03/16 02:48:54;;;;;;;19.23;7.30;;;10.70;99.90;;;;;;5090284;28;20051;-72
2024/03/16 02:51:20;;;;;;;20.80;8.57;;;10.70;99.90;;;;;;5089936;28;20107;-71
2024/03/16 02:53:46;;;;;;;14.55;8.45;;;10.70;99.90;;;;;;5090029;28;20466;-71
2024/03/16 02:56:12;;;;;;;14.87;7.90;;;10.70;99.90;;;;;;5090033;28;20078;-71
2024/03/16 02:58:39;;;;;;;15.50;7.93;;;10.70;99.90;;;;;;5090335;28;20044;-71
2024/03/16 03:01:05;;;;;;;16.05;7.22;;;10.60;99.90;;;;;;5090094;28;20127;-73
2024/03/16 03:03:30;;;;;;;13.50;8.40;;;10.60;99.90;;;;;;5090178;28;20587;-72
2024/03/16 03:05:56;;;;;;;11.23;7.47;;;10.60;99.90;;;;;;5089558;28;20039;-72
2024/03/16 03:08:22;;;;;;;12.97;8.13;;;10.60;99.90;;;;;;5088678;28;20042;-71
2024/03/16 03:10:47;;;;;;;14.93;8.53;;;10.60;99.90;;;;;;5089088;28;20126;-71
2024/03/16 03:13:13;;;;;;;14.67;8.87;;;10.60;99.90;;;;;;5088899;28;20032;-72
2024/03/16 03:15:38;;;;;;;18.27;10.20;;;10.60;99.90;;;;;;5087696;28;20024;-72
2024/03/16 03:18:05;;;;;;;18.00;9.60;;;10.50;99.90;;;;;;5088821;28;20046;-72
2024/03/16 03:20:31;;;;;;;19.77;9.88;;;10.50;99.90;;;;;;5089001;28;20038;-71
2024/03/16 03:22:57;;;;;;;15.30;9.40;;;10.40;99.90;;;;;;5088463;28;20028;-72
2024/03/16 03:25:22;;;;;;;17.20;8.83;;;10.50;99.90;;;;;;5088490;28;20553;-73
2024/03/16 03:27:48;;;;;;;15.30;9.40;;;10.40;99.90;;;;;;5089018;28;20075;-71
2024/03/16 03:30:14;;;;;;;17.10;10.70;;;10.40;99.90;;;;;;5086391;28;20122;-71
2024/03/16 03:32:39;;;;;;;17.97;8.80;;;10.50;99.90;;;;;;5086768;28;20028;-75
2024/03/16 03:35:05;;;;;;;16.60;9.80;;;10.50;99.90;;;;;;5087599;28;20028;-74
2024/03/16 03:37:31;;;;;;;17.70;9.90;;;10.40;99.90;;;;;;5089244;28;20024;-71
2024/03/16 03:39:57;;;;;;;18.63;9.82;;;10.40;99.90;;;;;;5088456;28;20420;-73
2024/03/16 03:42:29;;;;;;;14.90;8.80;;;10.40;99.90;;;;;;5088453;28;20111;-73
2024/03/16 03:45:10;;;;;;;12.75;8.68;;;10.40;99.90;;;;;;5088237;28;20024;-71
2024/03/16 03:50:26;;;;;;;27.92;9.50;;;10.40;99.90;;;;;;5088954;28;20073;-73
2024/03/16 03:52:54;;;;;;;15.63;9.35;;;10.50;99.90;;;;;;5089664;28;20020;-73
2024/03/16 03:55:23;;;;;;;15.80;9.35;;;10.40;99.90;;;;;;5089065;28;20475;-69
2024/03/16 03:57:49;;;;;;;19.23;9.15;;;10.50;99.90;;;;;;5088484;28;20392;-68
2024/03/16 04:00:15;;;;;;;15.23;9.15;;;10.50;99.90;;;;;;5087975;28;20073;-69
2024/03/16 04:02:41;;;;;;;14.07;8.43;;;10.50;99.90;;;;;;5088414;28;20077;-70
2024/03/16 04:05:07;;;;;;;14.17;7.73;;;10.50;99.90;;;;;;5088614;28;20024;-70
2024/03/16 04:07:32;;;;;;;13.38;8.32;;;10.30;99.90;;;;;;5088675;28;20024;-72
2024/03/16 04:10:00;;;;;;;12.07;8.03;;;10.20;99.90;;;;;;5088055;28;20040;-70
2024/03/16 04:12:26;;;;;;;23.15;8.45;;;10.30;99.90;;;;;;5088375;28;20028;-71
2024/03/16 04:14:54;;;;;;;11.95;8.27;;;10.30;99.90;;;;;;5086488;28;20020;-71
2024/03/16 04:17:19;;;;;;;13.55;7.75;;;10.30;99.90;;;;;;5086771;28;20478;-74
2024/03/16 04:19:46;;;;;;;18.13;8.43;;;10.40;99.90;;;;;;5087933;28;20110;-73
2024/03/16 04:22:12;;;;;;;14.38;8.57;;;10.40;99.90;;;;;;5087399;28;20016;-69
2024/03/16 04:24:38;;;;;;;16.20;8.18;;;10.50;99.90;;;;;;5088486;28;20078;-70
2024/03/16 04:27:04;;;;;;;14.87;8.43;;;10.50;99.90;;;;;;5088364;28;20032;-71
2024/03/16 04:29:32;;;;;;;15.13;8.93;;;10.50;99.90;;;;;;5088048;28;20119;-69
2024/03/16 04:31:59;;;;;;;15.25;8.20;;;10.60;99.90;;;;;;5087975;28;20036;-70
2024/03/16 04:34:28;;;;;;;14.75;8.52;;;10.50;99.90;;;;;;5087295;28;20373;-71
2024/03/16 04:36:54;;;;;;;11.30;7.65;;;10.60;99.90;;;;;;5087592;28;20024;-71
2024/03/16 04:39:23;;;;;;;15.77;8.60;;;10.50;99.90;;;;;;5087863;28;20040;-73
2024/03/16 04:41:50;;;;;;;13.63;8.25;;;10.50;99.90;;;;;;5087984;28;20054;-74
2024/03/16 04:44:16;;;;;;;14.85;7.70;;;10.50;99.90;;;;;;5081352;28;20111;-72
2024/03/16 04:46:42;;;;;;;12.77;9.57;;;10.60;99.90;;;;;;5076014;28;20055;-74
2024/03/16 04:49:07;;;;;;;15.32;10.25;;;10.50;99.90;;;;;;5078254;28;20479;-73
2024/03/16 04:51:33;;;;;;;15.77;9.67;;;10.50;99.90;;;;;;5076487;28;20025;-73
2024/03/16 04:54:02;;;;;;;16.35;9.40;;;10.50;99.90;;;;;;5077787;28;20035;-74
2024/03/16 04:56:28;;;;;;;14.27;9.30;;;10.40;99.90;;;;;;5070063;28;20036;-73
2024/03/16 04:58:57;;;;;;;17.63;10.35;;;10.40;99.90;;;;;;5076660;28;20036;-74
2024/03/16 05:01:22;;;;;;;13.68;10.43;;;10.50;99.90;;;;;;5075407;28;20101;-75
2024/03/16 05:03:48;;;;;;;12.23;9.03;;;10.50;99.90;;;;;;5078574;28;20539;-74
2024/03/16 05:06:14;;;;;;;19.80;8.93;;;10.50;99.90;;;;;;5072306;28;20027;-73
2024/03/16 05:08:40;;;;;;;15.63;9.65;;;10.40;99.90;;;;;;5070456;28;20040;-75
2024/03/16 05:11:06;;;;;;;13.52;8.40;;;10.40;99.90;;;;;;5071238;28;20040;-74
2024/03/16 05:13:32;;;;;;;20.27;9.32;;;10.40;99.90;;;;;;5078477;28;20139;-75
2024/03/16 05:16:03;;;;;;;17.15;9.20;;;10.50;99.90;;;;;;5075063;28;20119;-74
2024/03/16 05:18:28;;;;;;;13.38;8.23;;;10.50;99.90;;;;;;5072408;28;20776;-73
2024/03/16 05:20:54;;;;;;;13.93;7.70;;;10.40;99.90;;;;;;5074385;28;20152;-73
2024/03/16 05:23:19;;;;;;;13.47;7.63;;;10.30;99.90;;;;;;5076304;28;20024;-73
2024/03/16 05:25:46;;;;;;;10.27;6.97;;;10.10;99.90;;;;;;5071977;28;20037;-73
2024/03/16 05:28:12;;;;;;;;;;;10.00;99.90;;;;;;5073217;28;20283;-74
2024/03/16 05:30:37;;;;;;;16.30;6.95;;;9.90;99.90;;;;;;5078010;28;19922;-74
2024/03/16 05:33:04;;;;;;;16.47;6.67;;;9.90;99.90;;;;;;5074701;28;20185;-71
2024/03/16 05:35:30;;;;;;;19.83;6.35;;;10.00;99.90;;;;;;5070096;28;20016;-74
2024/03/16 05:37:56;;;;;;;9.60;5.53;;;10.10;99.90;;;;;;5070829;28;20515;-74
2024/03/16 05:40:21;;;;;;;14.27;5.28;;;10.10;99.90;;;;;;5076129;28;20043;-74
2024/03/16 05:42:47;;;;;;;12.93;6.17;;;10.10;99.90;;;;;;5074682;28;20102;-74
2024/03/16 05:45:12;;;;;;;8.47;5.27;;;10.20;99.90;;;;;;5074642;28;20048;-75
2024/03/16 05:47:38;;;;;;;10.20;5.00;;;10.20;99.90;;;;;;5076531;28;20512;-73
2024/03/16 05:50:05;;;;;;;12.50;4.80;;;10.20;99.90;;;;;;5071589;28;20025;-74
2024/03/16 05:52:30;;;;;;;13.95;4.88;;;10.20;99.90;;;;;;5071648;28;20330;-73
2024/03/16 05:54:56;;;;;;;10.23;5.50;;;10.20;99.90;;;;;;5074698;28;20063;-71
2024/03/16 05:57:21;;;;;;;15.97;5.00;;;10.10;99.90;;;;;;5072111;28;20064;-71
2024/03/16 05:59:48;;;;;;;11.37;5.00;;;10.10;99.90;;;;;;5071897;28;20593;-73
2024/03/16 06:02:14;;;;;;;;;;;10.10;99.90;;;;;;5072960;28;20025;-71
2024/03/16 06:04:39;;;;;;;12.05;5.07;;;10.10;99.90;;;;;;5071540;28;20845;-71
2024/03/16 06:07:05;;;;;;;12.53;5.30;;;10.10;99.90;;;;;;5071974;28;20044;-72
2024/03/16 06:09:31;;;;;;;9.27;5.53;;;10.10;99.90;;;;;;5070883;28;20032;-72
2024/03/16 06:11:56;;;;;;;21.67;6.03;;;10.10;99.90;;;;;;5078320;28;20047;-73
2024/03/16 06:14:22;;;;;;;13.63;5.13;;;10.10;99.90;;;;;;5078012;28;20500;-71
2024/03/16 06:16:47;;;;;;;13.83;5.90;;;10.20;99.90;;;;;;5076864;28;20042;-72
2024/03/16 06:19:13;;;;;;;9.90;6.03;;;10.20;99.90;;;;;;5070114;28;20090;-73
2024/03/16 06:21:39;;;;;;;9.87;6.03;;;10.20;99.90;;;;;;5080800;28;20541;-73
2024/03/16 06:24:05;;;;;;;16.67;6.53;;;10.30;99.90;;;;;;5079349;28;20036;-72
2024/03/16 06:26:36;;;;;;;14.75;5.72;;;10.30;99.90;;;;;;5078642;28;20017;-73
2024/03/16 06:29:05;;;;;;;12.15;5.55;;;10.30;99.90;;;;;;5078674;28;20097;-74
2024/03/16 06:31:31;;;;;;;15.40;6.72;;;10.40;99.90;;;;;;5076787;28;20024;-74
2024/03/16 06:34:04;;;;;;;16.38;7.00;;;10.50;99.90;;;;;;5072003;28;20028;-75
2024/03/16 06:36:30;;;;;;;12.68;6.35;;;10.60;99.90;;;;;;5075825;28;20574;-74
2024/03/16 06:38:56;;;;;;;18.38;7.07;;;10.90;99.90;;;;;;5079153;28;20037;-74
2024/03/16 06:41:22;;;;;;;14.40;7.07;;;11.20;99.90;;;;;;5079399;28;20030;-74
2024/03/16 06:43:47;;;;;;;10.40;5.50;;;11.40;99.90;;;;;;5073694;28;20731;-75
2024/03/16 06:46:13;;;;;;;10.60;5.23;;;11.40;99.90;;;;;;5077096;28;20039;-74
2024/03/16 06:48:38;;;;;;;16.50;6.33;;;11.50;99.90;;;;;;5079156;28;20028;-74
2024/03/16 06:51:04;;;;;;;10.27;5.97;;;11.50;99.90;;;;;;5078305;28;20058;-74
2024/03/16 06:53:30;;;;;;;11.50;5.07;;;11.50;99.90;;;;;;5077478;28;20539;-75
2024/03/16 06:55:56;;;;;;;17.50;5.78;;;11.70;99.90;;;;;;5080507;28;20024;-74
2024/03/16 06:58:22;;;;;;;12.57;5.03;;;11.90;99.90;;;;;;5077816;28;20054;-74
2024/03/16 07:00:48;;;;;;;10.15;5.00;;;12.00;99.90;;;;;;5078716;28;20066;-74
2024/03/16 07:03:15;;;;;;;12.30;4.50;;;12.10;99.90;;;;;;5073915;28;20017;-75
2024/03/16 07:05:44;;;;;;;9.23;4.53;;;12.40;99.90;;;;;;5075072;28;20100;-75
2024/03/16 07:08:12;;;;;;;10.95;4.03;;;12.80;99.90;;;;;;5080010;28;20043;-75
2024/03/16 07:10:38;;;;;;;6.57;3.97;;;13.10;99.90;;;;;;5076793;28;20017;-73
2024/03/16 07:13:03;;;;;;;11.80;4.50;;;13.90;99.90;;;;;;5077039;28;20574;-77
2024/03/16 07:15:31;;;;;;;7.15;3.92;;;15.60;99.90;;;;;;5076087;28;20139;-76
2024/03/16 07:17:57;;;;;;;7.80;3.45;;;17.40;99.90;;;;;;5071224;28;20032;-74
2024/03/16 07:20:23;;;;;;;6.73;3.50;;;16.80;99.40;;;;;;5076087;28;20032;-74
2024/03/16 07:22:48;;;;;;;12.60;3.53;;;15.60;99.90;;;;;;5076830;28;20401;-73
2024/03/16 07:25:14;;;;;;;13.87;4.77;;;14.20;99.90;;;;;;5078721;28;20107;-71
2024/03/16 07:27:41;;;;;;;10.98;3.33;;;13.80;99.90;;;;;;5074543;28;20029;-72
2024/03/16 07:30:07;;;;;;;10.38;2.88;;;13.60;99.90;;;;;;5078985;28;20425;-72
2024/03/16 07:32:33;;;;;;;8.13;3.65;;;13.30;99.90;;;;;;5080380;28;20107;-73
2024/03/16 07:34:59;;;;;;;8.30;3.22;;;13.40;99.90;;;;;;5079832;28;20033;-79
2024/03/16 07:37:25;;;;;;;9.38;3.35;;;14.00;99.90;;;;;;5074255;28;20115;-72
2024/03/16 07:39:51;;;;;;;7.32;3.40;;;14.30;99.90;;;;;;5077452;28;20127;-71
2024/03/16 07:42:17;;;;;;;8.93;3.47;;;14.40;99.90;;;;;;5075396;28;20486;-78
2024/03/16 07:44:42;;;;;;;12.47;4.20;;;14.60;99.90;;;;;;5084731;28;20290;-72
2024/03/16 07:47:08;;;;;;;7.27;3.33;;;14.80;99.90;;;;;;5075677;28;20066;-73
2024/03/16 07:49:34;;;;;;;7.57;3.38;;;14.90;99.90;;;;;;5076250;28;20032;-76
2024/03/16 07:52:00;;;;;;;10.25;4.03;;;15.80;99.90;;;;;;5077429;28;20032;-72
2024/03/16 07:54:25;;;;;;;9.20;2.93;;;16.10;99.90;;;;;;5095571;28;20032;-76
2024/03/16 07:56:51;;;;;;;8.37;2.97;;;16.50;99.90;;;;;;5079760;28;20502;-72
2024/03/16 07:59:19;;;;;;;11.65;3.55;;;16.10;99.90;;;;;;5077518;28;20045;-73
2024/03/16 08:01:45;;;;;;;10.75;3.35;;;16.80;99.90;;;;;;5077614;28;20028;-73
2024/03/16 08:04:11;;;;;;;6.53;3.30;;;17.40;99.90;;;;;;5076642;28;20028;-73
2024/03/16 08:06:37;;;;;;;6.43;3.00;;;17.30;99.90;;;;;;5084723;28;20282;-72
2024/03/16 08:09:05;;;;;;;11.50;2.90;;;17.60;98.70;;;;;;5085615;28;20099;-73
2024/03/16 08:11:30;;;;;;;11.52;3.92;;;17.30;99.00;;;;;;5081405;28;20078;-73
2024/03/16 08:13:56;;;;;;;11.30;4.83;;;18.10;99.90;;;;;;5085164;28;20506;-72
2024/03/16 08:16:22;;;;;;;11.47;4.13;;;20.00;96.60;;;;;;5077230;28;20480;-73
2024/03/16 08:18:47;;;;;;;12.37;3.87;;;21.50;92.10;;;;;;5082647;28;20315;-73
2024/03/16 08:21:14;;;;;;;9.33;3.37;;;22.80;86.50;;;;;;5077798;28;20055;-73
2024/03/16 08:23:40;;;;;;;10.93;3.72;;;22.20;85.00;;;;;;5082620;28;20183;-73
2024/03/16 08:26:06;;;;;;;7.95;3.20;;;23.60;85.30;;;;;;5077052;28;20028;-74
2024/03/16 08:28:32;;;;;;;7.10;3.30;;;20.70;84.00;;;;;;5073048;28;20386;-72
2024/03/16 08:30:57;;;;;;;8.15;3.45;;;20.70;87.00;;;;;;5071997;28;20282;-73
2024/03/16 08:33:24;;;;;;;5.73;3.53;;;21.50;84.80;;;;;;5077826;28;20338;-73
2024/03/16 08:35:50;;;;;;;8.18;3.75;;;22.30;83.60;;;;;;5072059;28;20078;-70
2024/03/16 08:38:15;;;;;;;8.55;3.88;;;23.10;80.90;;;;;;5076112;28;20032;-72
2024/03/16 08:40:41;;;;;;;8.37;3.50;;;23.70;80.00;;;;;;5077952;28;20067;-71
2024/03/16 08:43:07;;;;;;;7.53;3.60;;;23.80;75.90;;;;;;5083091;28;20089;-70
2024/03/16 08:45:35;;;;;;;10.88;3.83;;;24.00;76.70;;;;;;5080756;28;21035;-68
2024/03/16 08:48:01;;;;;;;8.55;3.78;;;24.20;77.90;;;;;;5080122;28;20033;-73
2024/03/16 08:50:27;;;;;;;8.18;3.17;;;25.50;73.70;;;;;;5075030;28;20082;-70
2024/03/16 08:52:53;;;;;;;6.50;2.65;;;25.60;69.50;;;;;;5077670;28;20020;-73
2024/03/16 08:55:20;;;;;;;6.80;2.70;;;25.50;68.00;;;;;;5078258;28;20029;-74
2024/03/16 08:57:46;;;;;;;9.07;2.20;;;26.30;68.40;;;;;;5079986;28;20031;-71
2024/03/16 09:00:14;;;;;;;6.63;2.72;;;24.90;67.40;;;;;;5077389;28;20040;-70
2024/03/16 09:02:40;;;;;;;9.90;3.30;;;22.50;73.30;;;;;;5079413;28;20056;-73
2024/03/16 09:05:08;;;;;;;5.90;2.55;;;21.60;77.80;;;;;;5080374;28;20083;-69
2024/03/16 09:07:37;;;;;;;8.02;2.60;;;20.30;79.00;;;;;;5077525;28;20083;-68
2024/03/16 09:10:06;;;;;;;11.38;2.72;;;19.20;81.90;;;;;;5072684;28;20430;-70
2024/03/16 09:12:32;;;;;;;6.85;2.08;;;18.40;86.60;;;;;;5067842;28;20832;-69
2024/03/16 09:14:57;;;;;;;6.82;2.35;;;18.00;84.70;;;;;;5079321;28;20020;-68
2024/03/16 09:17:23;;;;;;;9.73;2.47;;;17.90;83.60;;;;;;5077706;28;20390;-73
2024/03/16 09:19:49;;;;;;;8.57;2.20;;;17.30;87.70;;;;;;5068281;28;20028;-73
2024/03/16 09:22:14;;;;;;;7.20;2.00;;;17.30;85.90;;;;;;5077182;28;20028;-74
2024/03/16 09:24:41;;;;;;;8.07;1.88;;;17.10;86.80;;;;;;5076308;28;20404;-72
2024/03/16 09:27:07;;;;;;;6.70;1.55;;;19.70;81.20;;;;;;5084732;28;20771;-67
2024/03/16 09:29:33;;;;;;;9.27;1.70;;;19.60;80.20;;;;;;5078316;28;20028;-73
2024/03/16 09:31:59;;;;;;;7.43;2.28;;;20.60;76.50;;;;;;5079398;28;20480;-71
2024/03/16 09:34:24;;;;;;;8.40;2.13;;;19.90;79.50;;;;;;5071200;28;20060;-73
2024/03/16 09:36:50;;;;;;;7.80;2.13;;;19.70;79.80;;;;;;5074473;28;20453;-71
2024/03/16 09:39:16;;;;;;;9.40;1.83;;;;;;;;;;5076523;28;20089;-71
2024/03/16 09:41:46;;;;;;;8.38;1.85;;;22.10;71.50;;;;;;5076284;28;20029;-73
2024/03/16 09:44:13;;;;;;;5.88;2.10;;;20.30;78.10;;;;;;5086707;28;20036;-72
2024/03/16 09:46:43;;;;;;;6.10;1.65;;;22.30;74.90;;;;;;5078584;28;20032;-74
2024/03/16 09:49:10;;;;;;;7.80;2.13;;;22.10;72.80;;;;;;5074503;28;20031;-71
2024/03/16 09:51:37;;;;;;;7.35;1.60;;;19.60;77.90;;;;;;5079847;28;20025;-71
2024/03/16 09:54:09;;;;;;;7.47;1.75;;;18.20;83.50;;;;;;5078911;28;20090;-73
2024/03/16 09:56:36;;;;;;;7.20;1.63;;;17.10;84.60;;;;;;5080037;28;20032;-71
2024/03/16 09:59:10;;;;;;;6.20;1.70;;;16.60;89.00;;;;;;5069311;28;20044;-71
2024/03/16 10:01:35;;;;;;;17.33;1.90;;;16.40;90.50;;;;;;5078449;28;20058;-73
2024/03/16 10:04:01;;;;;;;10.10;2.53;;;15.20;93.40;;;;;;5084282;28;20048;-72
2024/03/16 10:06:27;;;;;;;6.93;2.22;;;14.70;97.50;;;;;;5081037;28;20024;-75
2024/03/16 10:09:12;;;;;;;5.57;1.40;;;14.70;99.90;;;;;;5077048;28;20131;-72
2024/03/16 10:11:43;;;;;;;11.10;1.70;;;14.30;97.40;;;;;;5076188;28;20032;-74
2024/03/16 10:14:10;;;;;;;11.00;1.92;;;14.10;98.70;;;;;;5086158;28;20047;-73
2024/03/16 10:16:38;;;;;;;4.00;1.20;;;13.80;99.90;;;;;;5077806;28;20044;-76
2024/03/16 10:19:06;;;;;;;9.70;1.52;;;13.70;99.70;;;;;;5078103;28;20118;-71
2024/03/16 10:21:32;;;;;;;7.45;1.67;;;13.70;99.90;;;;;;5092723;28;20024;-70
2024/03/16 10:23:59;;;;;;;7.80;1.80;;;13.90;99.90;;;;;;5076037;28;20853;-72
2024/03/16 10:26:30;;;;;;;17.05;1.70;;;14.20;99.90;;;;;;5075786;28;20271;-73
2024/03/16 10:29:07;;;;;;;9.52;1.92;;;14.30;99.90;;;;;;5077817;28;20035;-71
2024/03/16 10:31:32;;;;;;;;;;;14.20;99.90;;;;;;5077817;28;20032;-71
2024/03/16 10:34:01;;;;;;;8.18;1.42;;;14.20;99.90;;;;;;5076111;28;19969;-71
2024/03/16 10:36:27;;;;;;;2.97;1.02;;;14.30;99.90;;;;;;5078757;28;20070;-73
2024/03/16 10:38:55;;;;;;;8.70;1.33;;;14.20;99.90;;;;;;5074194;28;20029;-73
2024/03/16 10:41:21;;;;;;;7.47;1.35;;;14.30;99.90;;;;;;5074270;28;20511;-72
2024/03/16 10:43:47;;;;;;;5.47;1.38;;;14.60;99.90;;;;;;5074092;28;20086;-74
2024/03/16 10:46:19;;;;;;;7.73;1.30;;;14.20;99.90;;;;;;5070041;28;20070;-74
2024/03/16 10:48:47;;;;;;;6.63;1.63;;;14.20;99.90;;;;;;5074088;28;20036;-75
2024/03/16 10:51:17;;;;;;;4.68;1.17;;;14.40;99.90;;;;;;5074710;28;20139;-73
2024/03/16 10:53:45;;;;;;;3.50;1.35;;;14.40;99.90;;;;;;5073966;28;20016;-75
2024/03/16 10:56:12;;;;;;;3.88;1.27;;;14.60;99.90;;;;;;5073852;28;20039;-73
2024/03/16 10:58:37;;;;;;;6.95;1.63;;;14.70;99.60;;;;;;5076567;28;20035;-74
2024/03/16 11:01:08;;;;;;;7.80;1.47;;;14.70;98.90;;;;;;5099046;27;20039;-68
2024/03/16 11:03:38;;;;;;;8.88;1.83;;;14.80;97.70;;;;;;5078437;28;20037;-67
2024/03/16 11:06:11;;;;;;;7.60;1.60;;;15.10;96.70;;;;;;5078094;28;20442;-69
2024/03/16 11:08:48;;;;;;;3.60;1.15;;;15.10;95.20;;;;;;5077224;28;20469;-70
2024/03/16 11:11:27;;;;;;;8.38;1.30;;;15.20;96.80;;;;;;5082325;28;20028;-74
2024/03/16 11:13:58;;;;;;;10.13;1.88;;;15.20;96.30;;;;;;5085672;28;20073;-74
2024/03/16 11:16:34;;;;;;;10.18;2.25;;;15.60;95.20;;;;;;5083856;28;20020;-71
2024/03/16 11:19:00;;;;;;;10.48;2.30;;;15.80;94.40;;;;;;5082263;28;20031;-74
2024/03/16 11:21:27;;;;;;;8.95;1.50;;;15.90;92.90;;;;;;5082749;28;20041;-73
2024/03/16 11:23:59;;;;;;;11.02;2.10;;;16.00;92.20;;;;;;5084386;28;20538;-71
2024/03/16 11:26:28;;;;;;;7.03;1.77;;;16.20;93.40;;;;;;5083483;28;20039;-73
2024/03/16 11:29:04;;;;;;;5.97;1.48;;;16.30;91.70;;;;;;5080193;28;20036;-71
2024/03/16 11:31:39;;;;;;;12.77;2.13;;;16.00;90.10;;;;;;5078284;28;20115;-72
2024/03/16 11:34:09;;;;;;;11.52;2.35;;;16.20;88.60;;;;;;5081775;28;20031;-72
2024/03/16 11:36:42;;;;;;;9.15;1.73;;;16.20;89.40;;;;;;5081032;28;20059;-72
2024/03/16 11:39:16;;;;;;;10.18;2.20;;;16.20;86.50;;;;;;5079215;28;20072;-72
2024/03/16 11:41:46;;;;;;;18.15;3.33;;;16.10;87.80;;;;;;5081947;28;20039;-72
2024/03/16 11:44:16;;;;;;;9.30;2.45;;;16.60;88.50;;;;;;5072889;28;20044;-74
2024/03/16 11:46:44;;;;;;;13.52;2.25;;;16.50;86.30;;;;;;5088299;28;20081;-74
2024/03/16 11:49:16;;;;;;;9.65;2.17;;;16.60;86.50;;;;;;5081862;28;20051;-72
2024/03/16 11:51:49;;;;;;;14.50;2.35;;;16.50;85.30;;;;;;5079906;28;20035;-73
2024/03/16 11:54:16;;;;;;;11.38;2.50;;;17.20;86.50;;;;;;5075133;28;20086;-72
2024/03/16 11:56:43;;;;;;;11.70;2.83;;;16.90;81.90;;;;;;5080721;28;20085;-71
2024/03/16 11:59:18;;;;;;;17.20;3.17;;;17.20;83.00;;;;;;5077190;28;20063;-72
2024/03/16 12:01:54;;;;;;;8.30;2.33;;;17.20;81.60;;;;;;5079727;28;20062;-70
2024/03/16 12:04:24;;;;;;;10.25;2.67;;;17.80;82.30;;;;;;5077502;28;20049;-72
2024/03/16 12:06:54;;;;;;;11.85;2.50;;;18.00;85.60;;;;;;5076577;28;20486;-72
2024/03/16 12:09:31;;;;;;;10.10;2.47;;;17.90;82.60;;;;;;5091767;28;20543;-71
2024/03/16 12:12:00;;;;;;;;;;;17.70;83.90;;;;;;5077544;28;20025;-75
2024/03/16 12:14:25;;;;;;;13.23;2.15;;;17.20;79.90;;;;;;5078586;28;20010;-72
2024/03/16 12:16:53;;;;;;;10.23;2.17;;;17.20;87.30;;;;;;5081719;28;20498;-77
2024/03/16 12:19:19;;;;;;;11.48;2.08;;;17.30;83.00;;;;;;5076921;28;20499;-71
2024/03/16 12:21:46;;;;;;;8.95;2.15;;;17.40;84.70;;;;;;5076021;28;20062;-73
2024/03/16 12:24:15;;;;;;;10.80;2.22;;;17.40;85.30;;;;;;5076477;28;20086;-74
2024/03/16 12:26:43;;;;;;;8.20;1.73;;;17.60;84.00;;;;;;5073094;28;20016;-73
2024/03/16 12:29:12;;;;;;;10.05;1.95;;;17.20;80.50;;;;;;5078616;28;20505;-71
2024/03/16 12:31:39;;;;;;;14.35;2.33;;;17.10;80.50;;;;;;5074359;28;20035;-72
2024/03/16 12:34:10;;;;;;;7.57;2.40;;;17.00;83.10;;;;;;5076690;28;20427;-70
2024/03/16 12:36:36;;;;;;;13.07;2.38;;;17.10;86.50;;;;;;5079869;28;20775;-71
2024/03/16 12:39:07;;;;;;;19.60;3.97;;;16.90;80.80;;;;;;5076623;28;20061;-71
2024/03/16 12:41:37;;;;;;;10.10;2.42;;;16.60;84.10;;;;;;5076113;28;20331;-70